createdAt,value
2018-06-25T00:00:59.002Z,83.40
2018-06-25T00:03:27.888Z,83.50
2018-06-25T00:05:56.743Z,83.40
2018-06-25T00:08:25.670Z,83.50
2018-06-25T00:10:54.587Z,83.40
2018-06-25T00:15:52.166Z,83.40
2018-06-25T00:18:21.193Z,83.40
2018-06-25T00:20:50.068Z,83.40
2018-06-25T00:23:18.992Z,83.30
2018-06-25T00:25:47.866Z,83.40
2018-06-25T00:28:16.758Z,83.20
2018-06-25T00:30:45.738Z,83.20
2018-06-25T00:33:14.655Z,83.20
2018-06-25T00:35:43.546Z,83.50
2018-06-25T00:38:12.438Z,83.30
2018-06-25T00:40:41.335Z,83.10
2018-06-25T00:43:10.270Z,83.30
2018-06-25T00:45:39.157Z,83.00
2018-06-25T00:48:08.083Z,83.10
2018-06-25T00:50:37.335Z,83.30
2018-06-25T00:53:06.207Z,82.90
2018-06-25T00:55:35.163Z,83.10
2018-06-25T00:58:04.052Z,82.90
2018-06-25T01:00:32.987Z,83.10
2018-06-25T01:03:01.862Z,83.10
2018-06-25T01:05:30.916Z,82.90
2018-06-25T01:07:59.788Z,83.20
2018-06-25T01:10:28.675Z,83.10
2018-06-25T01:12:57.586Z,83.20
2018-06-25T01:15:26.456Z,83.10
2018-06-25T01:17:55.346Z,83.90
2018-06-25T01:20:24.298Z,83.10
2018-06-25T01:22:53.214Z,83.20
2018-06-25T01:27:50.649Z,83.30
2018-06-25T01:30:19.548Z,83.00
2018-06-25T01:32:48.466Z,83.00
2018-06-25T01:35:17.374Z,83.00
2018-06-25T01:37:46.280Z,83.10
2018-06-25T01:40:15.217Z,83.10
2018-06-25T01:45:12.744Z,83.00
2018-06-25T01:47:45.086Z,83.10
2018-06-25T01:50:14.278Z,83.20
2018-06-25T01:52:43.317Z,83.30
2018-06-25T01:55:12.259Z,83.20
2018-06-25T01:57:41.146Z,83.40
2018-06-25T02:00:10.041Z,83.10
2018-06-25T02:02:38.878Z,83.10
2018-06-25T02:05:07.875Z,83.30
2018-06-25T02:07:36.730Z,83.10
2018-06-25T02:10:05.667Z,83.10
2018-06-25T02:12:34.645Z,83.20
2018-06-25T02:15:03.646Z,83.00
2018-06-25T02:17:32.553Z,83.20
2018-06-25T02:20:01.432Z,83.10
2018-06-25T02:22:30.340Z,83.20
2018-06-25T02:24:59.242Z,83.40
2018-06-25T02:27:28.430Z,83.20
2018-06-25T02:29:57.435Z,83.20
2018-06-25T02:32:26.215Z,83.20
2018-06-25T02:34:55.106Z,83.20
2018-06-25T02:37:24.047Z,82.80
2018-06-25T02:39:53.080Z,82.90
2018-06-25T02:48:31.034Z,82.80
2018-06-25T02:50:59.927Z,83.00
2018-06-25T02:53:28.804Z,83.10
2018-06-25T02:55:57.707Z,83.30
2018-06-25T02:58:26.569Z,83.10
2018-06-25T03:00:55.470Z,83.10
2018-06-25T03:03:24.363Z,83.40
2018-06-25T03:05:53.368Z,83.20
2018-06-25T03:08:22.276Z,83.20
2018-06-25T03:10:51.217Z,83.30
2018-06-25T03:13:20.165Z,83.40
2018-06-25T03:15:49.106Z,83.30
2018-06-25T03:20:46.583Z,83.50
2018-06-25T03:23:15.455Z,83.50
2018-06-25T03:25:44.390Z,83.40
2018-06-25T03:28:13.330Z,83.20
2018-06-25T03:30:42.254Z,83.30
2018-06-25T03:33:11.285Z,83.30
2018-06-25T03:35:40.131Z,83.40
2018-06-25T03:38:09.030Z,83.50
2018-06-25T03:40:37.918Z,83.50
2018-06-25T03:43:06.830Z,83.30
2018-06-25T03:45:35.804Z,83.60
2018-06-25T03:48:04.710Z,83.60
2018-06-25T03:50:33.574Z,83.70
2018-06-25T03:53:02.466Z,83.50
2018-06-25T03:55:31.363Z,83.50
2018-06-25T03:58:00.272Z,83.50
2018-06-25T04:00:29.138Z,83.30
2018-06-25T04:02:57.986Z,83.70
2018-06-25T04:05:26.866Z,83.50
2018-06-25T04:07:55.927Z,83.60
2018-06-25T04:10:24.792Z,83.50
2018-06-25T04:12:53.688Z,83.50
2018-06-25T04:15:22.580Z,83.30
2018-06-25T04:17:51.489Z,83.60
2018-06-25T04:20:20.387Z,83.60
2018-06-25T04:22:49.333Z,83.40
2018-06-25T04:25:18.203Z,83.50
2018-06-25T04:27:47.122Z,83.40
2018-06-25T04:30:15.982Z,83.40
2018-06-25T04:32:44.837Z,83.30
2018-06-25T04:35:13.716Z,83.30
2018-06-25T04:37:42.552Z,83.40
2018-06-25T04:40:11.428Z,83.60
2018-06-25T04:42:40.278Z,83.40
2018-06-25T04:45:09.250Z,83.30
2018-06-25T04:47:38.142Z,83.30
2018-06-25T04:50:07.030Z,83.30
2018-06-25T04:52:35.922Z,83.20
2018-06-25T04:55:04.784Z,83.10
2018-06-25T04:57:33.727Z,83.00
2018-06-25T05:00:02.587Z,83.10
2018-06-25T05:02:31.458Z,83.00
2018-06-25T05:05:00.331Z,83.00
2018-06-25T05:07:29.225Z,83.00
2018-06-25T05:09:58.368Z,83.10
2018-06-25T05:12:27.257Z,82.90
2018-06-25T05:14:56.111Z,83.00
2018-06-25T05:17:25.006Z,83.10
2018-06-25T05:19:53.880Z,83.00
2018-06-25T05:22:22.786Z,83.10
2018-06-25T05:24:51.638Z,82.50
2018-06-25T05:27:20.497Z,83.00
2018-06-25T05:29:49.350Z,83.00
2018-06-25T05:32:18.239Z,83.00
2018-06-25T05:37:15.653Z,83.00
2018-06-25T05:39:44.543Z,83.00
2018-06-25T05:42:18.882Z,83.20
2018-06-25T05:44:47.955Z,83.00
2018-06-25T05:47:17.329Z,83.10
2018-06-25T05:49:46.167Z,82.90
2018-06-25T05:52:15.118Z,83.00
2018-06-25T05:54:44.018Z,83.10
2018-06-25T05:57:13.175Z,82.90
2018-06-25T06:02:10.857Z,83.10
2018-06-25T06:04:39.718Z,83.10
2018-06-25T06:07:08.608Z,82.90
2018-06-25T06:09:37.448Z,83.50
2018-06-25T06:12:06.343Z,83.00
2018-06-25T06:14:35.190Z,83.10
2018-06-25T06:17:04.112Z,82.80
2018-06-25T06:19:32.926Z,82.90
2018-06-25T06:22:01.919Z,82.70
2018-06-25T06:24:31.358Z,82.50
2018-06-25T06:27:00.214Z,82.40
2018-06-25T06:29:29.046Z,82.30
2018-06-25T06:31:57.987Z,82.20
2018-06-25T06:34:26.858Z,82.10
2018-06-25T06:36:55.760Z,81.70
2018-06-25T06:39:24.686Z,82.00
2018-06-25T06:41:53.623Z,81.90
2018-06-25T06:44:22.470Z,81.70
2018-06-25T06:49:23.838Z,81.70
2018-06-25T06:51:53.014Z,81.50
2018-06-25T06:54:21.918Z,81.40
2018-06-25T06:56:50.815Z,81.50
2018-06-25T06:59:19.608Z,81.10
2018-06-25T07:01:48.473Z,81.30
2018-06-25T07:04:17.372Z,81.00
2018-06-25T07:06:46.258Z,80.80
2018-06-25T07:09:15.147Z,80.90
2018-06-25T07:11:44.089Z,80.80
2018-06-25T07:14:12.974Z,80.50
2018-06-25T07:16:42.055Z,80.30
2018-06-25T07:19:10.934Z,80.40
2018-06-25T07:21:39.798Z,80.30
2018-06-25T07:24:08.693Z,80.30
2018-06-25T07:26:37.581Z,80.00
2018-06-25T07:29:06.443Z,80.00
2018-06-25T07:31:35.284Z,79.70
2018-06-25T07:34:04.158Z,79.80
2018-06-25T07:36:32.978Z,80.10
2018-06-25T07:39:01.822Z,79.70
2018-06-25T07:41:30.705Z,79.70
2018-06-25T07:43:59.553Z,79.40
2018-06-25T07:46:28.358Z,79.20
2018-06-25T07:48:57.235Z,79.20
2018-06-25T07:51:26.127Z,79.20
2018-06-25T07:53:54.984Z,79.30
2018-06-25T07:56:23.862Z,79.60
2018-06-25T07:58:52.734Z,79.30
2018-06-25T08:01:21.574Z,79.50
2018-06-25T08:03:50.447Z,79.50
2018-06-25T08:06:19.307Z,79.60
2018-06-25T08:08:48.190Z,79.30
2018-06-25T08:11:17.062Z,79.60
2018-06-25T08:13:45.926Z,79.60
2018-06-25T08:16:14.850Z,79.20
2018-06-25T08:18:43.659Z,79.30
2018-06-25T08:21:12.481Z,79.50
2018-06-25T08:23:41.350Z,79.40
2018-06-25T08:26:10.174Z,79.40
2018-06-25T08:28:39.030Z,79.40
2018-06-25T08:31:07.870Z,79.40
2018-06-25T08:33:36.695Z,79.30
2018-06-25T08:36:05.567Z,80.00
2018-06-25T08:38:34.454Z,79.20
2018-06-25T08:41:03.523Z,79.20
2018-06-25T08:43:32.468Z,79.20
2018-06-25T08:46:01.472Z,79.10
2018-06-25T08:48:30.394Z,79.10
2018-06-25T08:50:59.375Z,79.00
2018-06-25T08:53:28.639Z,79.00
2018-06-25T08:55:57.719Z,79.10
2018-06-25T09:00:55.446Z,79.00
2018-06-25T09:03:24.391Z,78.90
2018-06-25T09:08:21.822Z,78.90
2018-06-25T09:10:51.180Z,78.90
2018-06-25T09:13:20.150Z,78.90
2018-06-25T09:15:49.024Z,78.90
2018-06-25T09:18:17.992Z,78.80
2018-06-25T09:20:46.973Z,78.90
2018-06-25T09:23:15.842Z,78.70
2018-06-25T09:25:44.719Z,78.70
2018-06-25T09:28:13.602Z,78.70
2018-06-25T09:30:42.479Z,78.60
2018-06-25T09:33:11.967Z,78.60
2018-06-25T09:35:40.861Z,78.70
2018-06-25T09:38:09.770Z,78.60
2018-06-25T09:40:39.602Z,78.60
2018-06-25T09:43:08.497Z,78.50
2018-06-25T09:45:37.380Z,78.50
2018-06-25T09:48:07.125Z,78.40
2018-06-25T09:50:36.043Z,78.30
2018-06-25T09:53:05.055Z,78.40
2018-06-25T09:55:34.272Z,78.50
2018-06-25T09:58:03.182Z,78.60
2018-06-25T10:00:37.586Z,78.60
2018-06-25T10:03:06.857Z,78.70
2018-06-25T10:05:35.781Z,78.80
2018-06-25T10:08:04.714Z,78.70
2018-06-25T10:10:33.823Z,78.50
2018-06-25T10:13:02.666Z,78.40
2018-06-25T10:15:31.588Z,78.50
2018-06-25T10:18:00.482Z,78.70
2018-06-25T10:20:29.338Z,78.80
2018-06-25T10:22:58.153Z,79.00
2018-06-25T10:25:27.060Z,78.80
2018-06-25T10:27:56.014Z,78.60
2018-06-25T10:30:24.890Z,78.60
2018-06-25T10:32:53.815Z,78.70
2018-06-25T10:35:22.735Z,78.90
2018-06-25T10:37:51.642Z,79.10
2018-06-25T10:40:20.552Z,79.10
2018-06-25T10:42:49.405Z,79.20
2018-06-25T10:45:18.296Z,79.10
2018-06-25T10:47:47.493Z,79.00
2018-06-25T10:50:16.498Z,79.00
2018-06-25T10:52:45.404Z,79.00
2018-06-25T10:55:14.242Z,79.00
2018-06-25T11:00:11.819Z,79.00
2018-06-25T11:02:40.507Z,78.80
2018-06-25T11:05:09.572Z,78.70
2018-06-25T11:07:38.482Z,78.70
2018-06-25T11:10:07.312Z,78.50
2018-06-25T11:12:36.238Z,78.50
2018-06-25T11:15:05.478Z,78.30
2018-06-25T11:17:34.302Z,78.20
2018-06-25T11:20:03.370Z,78.20
2018-06-25T11:22:32.209Z,78.10
2018-06-25T11:25:01.078Z,78.10
2018-06-25T11:27:30.095Z,77.80
2018-06-25T11:32:27.385Z,77.90
2018-06-25T11:34:56.239Z,77.70
2018-06-25T11:37:25.095Z,77.50
2018-06-25T11:39:53.913Z,77.20
2018-06-25T11:42:22.783Z,77.10
2018-06-25T11:44:51.626Z,77.10
2018-06-25T11:49:48.953Z,77.30
2018-06-25T11:52:17.776Z,77.50
2018-06-25T11:54:46.669Z,77.90
2018-06-25T11:59:44.239Z,77.60
2018-06-25T12:02:13.236Z,78.80
2018-06-25T12:04:42.019Z,78.20
2018-06-25T12:09:39.434Z,77.30
2018-06-25T12:12:08.341Z,78.20
2018-06-25T12:14:37.130Z,77.00
2018-06-25T12:17:05.954Z,78.50
2018-06-25T12:19:35.042Z,77.30
2018-06-25T12:22:03.891Z,78.10
2018-06-25T12:24:32.804Z,76.60
2018-06-25T12:27:01.726Z,78.10
2018-06-25T12:31:59.226Z,77.00
2018-06-25T12:34:28.113Z,76.90
2018-06-25T12:36:57.076Z,75.40
2018-06-25T12:44:23.212Z,76.50
2018-06-25T12:46:52.175Z,76.40
2018-06-25T12:49:21.022Z,76.80
2018-06-25T12:51:50.051Z,75.70
2018-06-25T12:54:18.926Z,74.90
2018-06-25T12:56:47.806Z,76.30
2018-06-25T12:59:16.780Z,75.60
2018-06-25T13:01:45.602Z,75.70
2018-06-25T13:04:14.455Z,72.90
2018-06-25T13:06:43.334Z,74.50
2018-06-25T13:09:13.089Z,74.10
2018-06-25T13:11:41.974Z,73.60
2018-06-25T13:14:10.863Z,75.00
2018-06-25T13:16:39.724Z,75.20
2018-06-25T13:19:08.574Z,74.50
2018-06-25T13:21:37.432Z,75.10
2018-06-25T13:24:06.461Z,73.70
2018-06-25T13:26:35.330Z,74.10
2018-06-25T13:29:04.206Z,74.10
2018-06-25T13:31:33.101Z,74.80
2018-06-25T13:34:01.930Z,74.70
2018-06-25T13:36:30.993Z,75.30
2018-06-25T13:38:59.835Z,74.20
2018-06-25T13:41:28.739Z,75.30
2018-06-25T13:43:57.646Z,74.00
2018-06-25T13:46:26.506Z,74.60
2018-06-25T13:48:55.394Z,73.60
2018-06-25T13:51:24.306Z,74.20
2018-06-25T13:53:53.199Z,73.90
2018-06-25T13:56:22.139Z,73.50
2018-06-25T13:58:50.995Z,73.20
2018-06-25T14:01:20.020Z,72.20
2018-06-25T14:03:48.919Z,72.30
2018-06-25T14:06:17.797Z,73.00
2018-06-25T14:11:23.688Z,72.80
2018-06-25T14:13:52.471Z,72.30
2018-06-25T14:16:21.355Z,73.50
2018-06-25T14:18:50.194Z,73.30
2018-06-25T14:21:19.025Z,73.20
2018-06-25T14:23:53.313Z,73.70
2018-06-25T14:26:22.332Z,73.80
2018-06-25T14:28:51.158Z,75.40
2018-06-25T14:31:24.539Z,75.20
2018-06-25T14:33:58.848Z,73.40
2018-06-25T14:36:27.703Z,74.10
2018-06-25T14:38:56.648Z,73.90
2018-06-25T14:41:25.506Z,74.20
2018-06-25T14:43:54.368Z,74.50
2018-06-25T14:46:23.229Z,75.20
2018-06-25T14:48:52.082Z,76.50
2018-06-25T14:51:20.966Z,76.50
2018-06-25T14:53:49.866Z,76.50
2018-06-25T14:56:18.720Z,76.70
2018-06-25T14:58:47.615Z,77.00
2018-06-25T15:01:16.443Z,76.80
2018-06-25T15:03:45.386Z,76.30
2018-06-25T15:06:14.222Z,76.10
2018-06-25T15:08:43.066Z,76.50
2018-06-25T15:11:11.970Z,76.60
2018-06-25T15:13:41.022Z,76.80
2018-06-25T15:16:09.858Z,77.30
2018-06-25T15:18:38.726Z,76.30
2018-06-25T15:21:07.546Z,77.00
2018-06-25T15:23:36.385Z,77.30
2018-06-25T15:26:05.373Z,76.90
2018-06-25T15:28:34.258Z,76.80
2018-06-25T15:31:03.084Z,77.50
2018-06-25T15:33:31.923Z,78.20
2018-06-25T15:36:00.811Z,78.20
2018-06-25T15:38:29.658Z,77.20
2018-06-25T15:40:58.515Z,78.70
2018-06-25T15:43:27.420Z,77.50
2018-06-25T15:45:56.255Z,78.30
2018-06-25T15:48:25.135Z,79.10
2018-06-25T15:50:53.968Z,77.80
2018-06-25T15:53:22.818Z,80.00
2018-06-25T15:55:51.710Z,79.50
2018-06-25T15:58:20.718Z,79.70
2018-06-25T16:00:49.775Z,80.00
2018-06-25T16:05:49.499Z,80.10
2018-06-25T16:08:18.783Z,80.10
2018-06-25T16:10:47.665Z,79.70
2018-06-25T16:13:16.544Z,81.00
2018-06-25T16:18:19.345Z,80.50
2018-06-25T16:20:48.214Z,80.00
2018-06-25T16:23:17.086Z,80.80
2018-06-25T16:25:45.986Z,82.30
2018-06-25T16:28:14.859Z,81.70
2018-06-25T16:30:43.742Z,82.40
2018-06-25T16:33:12.638Z,81.60
2018-06-25T16:35:41.581Z,81.70
2018-06-25T16:38:10.759Z,82.40
2018-06-25T16:40:39.646Z,82.90
2018-06-25T16:43:08.539Z,82.60
2018-06-25T16:45:37.400Z,81.90
2018-06-25T16:48:06.253Z,81.80
2018-06-25T16:50:35.246Z,78.60
2018-06-25T16:53:04.230Z,75.90
2018-06-25T16:55:33.095Z,76.30
2018-06-25T16:58:01.997Z,74.10
2018-06-25T17:00:32.370Z,73.50
2018-06-25T17:03:01.360Z,73.30
2018-06-25T17:05:30.223Z,72.90
2018-06-25T17:07:59.100Z,72.90
2018-06-25T17:10:27.975Z,73.20
2018-06-25T17:12:56.918Z,73.00
2018-06-25T17:15:25.851Z,71.50
2018-06-25T17:17:54.774Z,73.00
2018-06-25T17:20:23.732Z,74.20
2018-06-25T17:22:52.674Z,73.60
2018-06-25T17:25:21.546Z,71.80
2018-06-25T17:27:50.438Z,71.10
2018-06-25T17:30:19.303Z,70.10
2018-06-25T17:32:48.219Z,66.50
2018-06-25T17:35:17.173Z,62.30
2018-06-25T17:37:46.019Z,61.70
2018-06-25T17:40:14.879Z,62.90
2018-06-25T17:42:43.812Z,64.90
2018-06-25T17:45:12.671Z,63.50
2018-06-25T17:47:41.535Z,63.70
2018-06-25T17:50:10.331Z,63.60
2018-06-25T17:55:08.167Z,67.00
2018-06-25T17:57:36.967Z,65.40
2018-06-25T18:00:05.854Z,66.00
2018-06-25T18:02:34.774Z,68.20
2018-06-25T18:05:03.599Z,65.30
2018-06-25T18:07:32.435Z,66.50
2018-06-25T18:10:01.295Z,67.40
2018-06-25T18:12:30.144Z,68.00
2018-06-25T18:14:59.027Z,69.20
2018-06-25T18:19:56.513Z,70.40
2018-06-25T18:22:25.390Z,70.70
2018-06-25T18:24:54.272Z,72.70
2018-06-25T18:27:23.480Z,73.50
2018-06-25T18:29:52.439Z,72.80
2018-06-25T18:32:21.558Z,74.30
2018-06-25T18:34:50.652Z,74.40
2018-06-25T18:39:48.318Z,74.50
2018-06-25T18:42:17.222Z,76.10
2018-06-25T18:44:46.262Z,77.00
2018-06-25T18:47:15.178Z,79.70
2018-06-25T18:49:44.006Z,79.70
2018-06-25T18:52:12.892Z,80.80
2018-06-25T18:54:42.041Z,85.50
2018-06-25T18:57:11.170Z,87.40
2018-06-25T18:59:40.086Z,88.40
2018-06-25T19:02:09.315Z,87.90
2018-06-25T19:04:38.628Z,88.70
2018-06-25T19:07:07.788Z,89.00
2018-06-25T19:09:36.649Z,89.50
2018-06-25T19:14:34.297Z,90.30
2018-06-25T19:17:03.654Z,90.50
2018-06-25T19:19:32.542Z,90.90
2018-06-25T19:22:01.415Z,90.90
2018-06-25T19:24:30.314Z,90.90
2018-06-25T19:26:59.191Z,90.80
2018-06-25T19:29:28.090Z,91.00
2018-06-25T19:31:56.983Z,91.30
2018-06-25T19:34:25.845Z,91.40
2018-06-25T19:39:23.347Z,91.70
2018-06-25T19:41:52.216Z,91.80
2018-06-25T19:44:21.123Z,92.00
2018-06-25T19:46:49.987Z,92.00
2018-06-25T19:49:20.211Z,92.30
2018-06-25T19:51:50.035Z,92.40
2018-06-25T19:54:18.913Z,92.60
2018-06-25T19:56:47.791Z,92.60
2018-06-25T19:59:16.651Z,92.50
2018-06-25T20:01:45.783Z,92.70
2018-06-25T20:04:14.639Z,92.90
2018-06-25T20:06:43.506Z,92.60
2018-06-25T20:09:13.101Z,92.80
2018-06-25T20:11:42.492Z,93.10
2018-06-25T20:14:11.382Z,93.10
2018-06-25T20:16:40.496Z,93.10
2018-06-25T20:19:09.690Z,93.20
2018-06-25T20:21:38.625Z,93.20
2018-06-25T20:24:07.483Z,93.50
2018-06-25T20:26:36.390Z,93.60
2018-06-25T20:29:05.470Z,93.70
2018-06-25T20:31:34.299Z,93.80
2018-06-25T20:34:03.171Z,94.20
2018-06-25T20:36:32.365Z,94.00
2018-06-25T20:39:13.662Z,94.10
2018-06-25T20:41:43.085Z,94.20
2018-06-25T20:46:40.856Z,94.40
2018-06-25T20:49:10.008Z,94.30
2018-06-25T20:51:39.160Z,94.50
2018-06-25T20:54:08.743Z,94.80
2018-06-25T20:56:38.461Z,95.00
2018-06-25T20:59:07.342Z,94.70
2018-06-25T21:01:36.386Z,95.20
2018-06-25T21:04:05.479Z,95.30
2018-06-25T21:06:34.486Z,95.50
2018-06-25T21:09:05.279Z,95.50
2018-06-25T21:11:34.190Z,95.40
2018-06-25T21:14:03.287Z,95.60
2018-06-25T21:16:32.486Z,95.70
2018-06-25T21:19:01.351Z,95.70
2018-06-25T21:21:30.506Z,95.70
2018-06-25T21:23:59.885Z,96.10
2018-06-25T21:26:29.054Z,96.10
2018-06-25T21:28:59.350Z,96.20
2018-06-25T21:31:28.298Z,96.30
2018-06-25T21:33:57.242Z,96.50
2018-06-25T21:36:26.276Z,96.20
2018-06-25T21:38:55.323Z,96.20
2018-06-25T21:41:24.619Z,96.40
2018-06-25T21:43:53.622Z,96.50
2018-06-25T21:46:22.656Z,96.60
2018-06-25T21:48:51.741Z,96.60
2018-06-25T21:51:20.706Z,96.70
2018-06-25T21:53:50.015Z,96.70
2018-06-25T21:56:19.039Z,96.70
2018-06-25T21:58:48.366Z,96.80
2018-06-25T22:01:17.509Z,96.90
2018-06-25T22:03:46.443Z,97.10
2018-06-25T22:06:15.452Z,97.00
2018-06-25T22:08:44.504Z,97.10
2018-06-25T22:11:13.466Z,97.10
2018-06-25T22:13:42.471Z,97.30
2018-06-25T22:16:11.448Z,97.40
2018-06-25T22:18:40.495Z,97.50
2018-06-25T22:21:11.247Z,97.50
2018-06-25T22:23:45.240Z,97.90
2018-06-25T22:28:49.640Z,97.80
2018-06-25T22:33:55.347Z,97.70
2018-06-25T22:36:24.292Z,98.60
2018-06-25T22:38:54.164Z,92.60
2018-06-25T22:41:33.255Z,90.00
2018-06-25T22:44:13.071Z,87.30
2018-06-25T22:46:43.063Z,86.30
2018-06-25T22:49:12.984Z,85.60
2018-06-25T22:51:43.104Z,84.80
2018-06-25T22:56:40.458Z,84.30
2018-06-25T22:59:09.366Z,84.10
2018-06-25T23:01:38.274Z,83.80
2018-06-25T23:04:07.186Z,83.60
2018-06-25T23:06:36.012Z,83.40
2018-06-25T23:09:08.340Z,83.10
2018-06-25T23:11:37.211Z,83.00
2018-06-25T23:14:06.040Z,82.70
2018-06-25T23:16:34.947Z,82.60
2018-06-25T23:19:03.816Z,82.50
2018-06-25T23:21:32.642Z,82.40
2018-06-25T23:24:01.478Z,82.40
2018-06-25T23:26:30.306Z,82.30
2018-06-25T23:28:59.239Z,82.20
2018-06-25T23:31:28.266Z,82.20
2018-06-25T23:36:25.686Z,81.90
2018-06-25T23:38:54.486Z,81.90
2018-06-25T23:41:23.334Z,81.90
2018-06-25T23:43:52.163Z,81.90
2018-06-25T23:46:21.020Z,81.80
2018-06-25T23:48:49.855Z,81.70
2018-06-25T23:51:18.690Z,81.70
2018-06-25T23:53:47.498Z,81.70
2018-06-25T23:56:16.318Z,81.70
2018-06-25T23:58:45.155Z,81.50
